< < Back
Terminal Aerodrome Forecast


Current Version              Previous Versions:   1  2  3  4  5  6  7  8  9  

Terminal Aerodrome Forecast

818
FTUS42 KFFC 191100
TAFPDK
TAF
KPDK 191120Z 1912/2012 35008KT 6SM -RA BKN012
      TEMPO 1912/1916 3SM BR BKN005
     FM191600 04012G20KT 6SM -RA BR BKN012
     FM192200 05010KT P6SM BKN020=

Latest METAR

947
SAUS70 KWBC 200300 RRH
MTRPDK
METAR KPDK 200253Z AUTO VRB05G18KT 10SM FEW038 SCT070 BKN095 13/04 A3020
RMK AO2 SLP226 T01280039 51017


USA.gov is the U.S. government's official web portal to all federal, state and local government web resources and services.